createdAt,value
2019-03-11T00:00:37.267Z,7.78
2019-03-11T00:02:44.923Z,6.78
2019-03-11T00:04:52.517Z,7.25
2019-03-11T00:07:00.075Z,8.30
2019-03-11T00:09:07.813Z,6.30
2019-03-11T00:11:17.075Z,6.65
2019-03-11T00:13:24.909Z,7.58
2019-03-11T00:15:32.530Z,7.80
2019-03-11T00:17:40.182Z,8.03
2019-03-11T00:19:47.808Z,8.90
2019-03-11T00:21:55.362Z,7.25
2019-03-11T00:24:02.942Z,8.10
2019-03-11T00:26:11.315Z,8.28
2019-03-11T00:28:18.877Z,10.18
2019-03-11T00:30:26.457Z,9.90
2019-03-11T00:32:34.182Z,7.87
2019-03-11T00:34:41.747Z,9.95
2019-03-11T00:36:51.042Z,9.43
2019-03-11T00:38:58.736Z,6.37
2019-03-11T00:41:06.397Z,4.45
2019-03-11T00:43:14.107Z,5.70
2019-03-11T00:45:24.209Z,6.45
2019-03-11T00:47:30.928Z,7.80
2019-03-11T00:49:38.505Z,6.70
2019-03-11T00:51:46.131Z,7.65
2019-03-11T00:53:55.341Z,6.08
2019-03-11T00:56:03.006Z,8.10
2019-03-11T00:58:10.616Z,10.48
2019-03-11T01:00:37.400Z,8.53
2019-03-11T01:02:45.351Z,8.43
2019-03-11T01:04:52.937Z,5.58
2019-03-11T01:07:00.532Z,3.83
2019-03-11T01:09:08.696Z,4.22
2019-03-11T01:11:17.703Z,4.72
2019-03-11T01:13:25.333Z,5.20
2019-03-11T01:15:32.836Z,8.80
2019-03-11T01:17:40.430Z,4.22
2019-03-11T01:19:47.987Z,2.47
2019-03-11T01:21:56.869Z,6.08
2019-03-11T01:24:04.584Z,5.00
2019-03-11T01:26:12.354Z,3.50
2019-03-11T01:28:20.044Z,4.15
2019-03-11T01:30:27.747Z,4.55
2019-03-11T01:32:35.396Z,4.40
2019-03-11T01:34:42.978Z,3.75
2019-03-11T01:36:52.965Z,3.33
2019-03-11T01:39:01.623Z,2.77
2019-03-11T01:41:10.976Z,4.40
2019-03-11T01:43:18.535Z,2.42
2019-03-11T01:45:26.257Z,2.45
2019-03-11T01:47:33.848Z,4.12
2019-03-11T01:49:41.639Z,3.77
2019-03-11T01:51:49.289Z,3.98
2019-03-11T01:53:56.940Z,2.85
2019-03-11T01:56:04.591Z,3.72
2019-03-11T01:58:12.176Z,3.77
2019-03-11T02:00:20.435Z,4.25
2019-03-11T02:02:28.068Z,3.00
2019-03-11T02:04:36.918Z,3.87
2019-03-11T02:06:44.675Z,4.75
2019-03-11T02:08:52.238Z,3.90
2019-03-11T02:11:01.083Z,4.12
2019-03-11T02:13:09.740Z,3.55
2019-03-11T02:15:19.312Z,5.97
2019-03-11T02:17:26.965Z,6.00
2019-03-11T02:19:34.614Z,7.83
2019-03-11T02:21:42.170Z,4.75
2019-03-11T02:23:49.744Z,5.08
2019-03-11T02:25:57.420Z,5.72
2019-03-11T02:28:06.027Z,8.15
2019-03-11T02:30:18.443Z,5.35
2019-03-11T02:32:28.532Z,6.12
2019-03-11T02:34:35.363Z,2.45
2019-03-11T02:36:43.000Z,3.47
2019-03-11T02:38:50.662Z,3.52
2019-03-11T02:40:58.255Z,3.92
2019-03-11T02:43:05.888Z,5.05
2019-03-11T02:45:13.695Z,3.30
2019-03-11T02:47:21.252Z,3.00
2019-03-11T02:49:28.883Z,3.87
2019-03-11T02:51:36.470Z,2.98
2019-03-11T02:53:44.099Z,3.30
2019-03-11T02:55:51.667Z,3.25
2019-03-11T02:57:59.242Z,3.52
2019-03-11T03:00:20.242Z,2.67
2019-03-11T03:02:38.450Z,3.12
2019-03-11T03:04:49.041Z,3.60
2019-03-11T03:06:56.597Z,4.25
2019-03-11T03:09:05.732Z,3.70
2019-03-11T03:11:13.718Z,3.92
2019-03-11T03:13:22.562Z,5.37
2019-03-11T03:15:30.308Z,4.22
2019-03-11T03:17:37.901Z,3.62
2019-03-11T03:19:45.535Z,4.17
2019-03-11T03:21:53.021Z,7.53
2019-03-11T03:24:00.747Z,6.22
2019-03-11T03:26:08.412Z,7.60
2019-03-11T03:28:18.599Z,7.47
2019-03-11T03:30:26.889Z,6.92
2019-03-11T03:32:34.618Z,6.72
2019-03-11T03:34:42.180Z,4.97
2019-03-11T03:36:49.844Z,5.80
2019-03-11T03:38:57.384Z,7.67
2019-03-11T03:41:05.224Z,3.90
2019-03-11T03:43:12.886Z,6.65
2019-03-11T03:45:34.264Z,6.53
2019-03-11T03:47:41.831Z,4.35
2019-03-11T03:49:49.689Z,5.20
2019-03-11T03:51:57.215Z,4.53
2019-03-11T03:54:04.917Z,7.28
2019-03-11T03:56:12.576Z,4.55
2019-03-11T03:58:20.138Z,5.65
2019-03-11T04:00:27.761Z,7.10
2019-03-11T04:02:35.391Z,9.45
2019-03-11T04:04:43.018Z,9.08
2019-03-11T04:06:50.567Z,5.33
2019-03-11T04:08:58.330Z,5.72
2019-03-11T04:11:06.128Z,5.12
2019-03-11T04:13:13.723Z,7.00
2019-03-11T04:15:21.419Z,10.93
2019-03-11T04:17:29.014Z,5.92
2019-03-11T04:19:36.711Z,5.72
2019-03-11T04:21:45.370Z,5.45
2019-03-11T04:23:53.173Z,5.28
2019-03-11T04:26:00.864Z,10.20
2019-03-11T04:28:09.702Z,6.47
2019-03-11T04:30:22.518Z,6.62
2019-03-11T04:32:30.126Z,6.85
2019-03-11T04:34:37.783Z,7.80
2019-03-11T04:36:46.634Z,8.25
2019-03-11T04:38:54.229Z,8.53
2019-03-11T04:41:01.877Z,8.58
2019-03-11T04:43:09.869Z,8.95
2019-03-11T04:45:21.129Z,8.35
2019-03-11T04:47:28.779Z,7.87
2019-03-11T04:49:36.342Z,8.78
2019-03-11T04:51:43.970Z,7.05
2019-03-11T04:53:51.455Z,8.05
2019-03-11T04:56:00.309Z,9.98
2019-03-11T04:58:07.947Z,8.03
2019-03-11T05:00:19.031Z,8.03
2019-03-11T05:02:26.593Z,10.18
2019-03-11T05:04:34.252Z,9.20
2019-03-11T05:06:41.914Z,6.90
2019-03-11T05:08:49.475Z,15.50
2019-03-11T05:10:57.128Z,10.00
2019-03-11T05:13:04.713Z,18.32
2019-03-11T05:15:14.092Z,13.03
2019-03-11T05:17:21.898Z,22.55
2019-03-11T05:19:29.560Z,17.52
2019-03-11T05:21:37.283Z,11.70
2019-03-11T05:23:46.223Z,13.58
2019-03-11T05:25:53.848Z,20.48
2019-03-11T05:28:01.523Z,14.47
2019-03-11T05:30:21.874Z,18.98
2019-03-11T05:32:29.478Z,17.15
2019-03-11T05:34:37.157Z,17.10
2019-03-11T05:36:44.746Z,11.30
2019-03-11T05:38:52.509Z,23.98
2019-03-11T05:41:00.093Z,14.23
2019-03-11T05:43:08.632Z,19.10
2019-03-11T05:45:18.210Z,10.40
2019-03-11T05:47:25.855Z,12.40
2019-03-11T05:49:33.319Z,11.78
2019-03-11T05:51:40.907Z,14.23
2019-03-11T05:53:48.477Z,23.80
2019-03-11T05:55:56.193Z,24.57
2019-03-11T05:58:04.039Z,13.30
2019-03-11T06:00:21.555Z,6.30
2019-03-11T06:02:29.086Z,15.28
2019-03-11T06:04:36.684Z,11.28
2019-03-11T06:06:44.147Z,13.18
2019-03-11T06:08:51.885Z,12.25
2019-03-11T06:10:59.486Z,12.15
2019-03-11T06:13:07.289Z,9.20
2019-03-11T06:15:15.986Z,16.48
2019-03-11T06:17:23.594Z,14.30
2019-03-11T06:19:31.170Z,13.83
2019-03-11T06:21:46.310Z,13.90
2019-03-11T06:23:54.076Z,11.45
2019-03-11T06:26:01.713Z,12.37
2019-03-11T06:28:09.290Z,16.12
2019-03-11T06:30:17.307Z,12.20
2019-03-11T06:32:25.770Z,19.37
2019-03-11T06:34:33.356Z,19.67
2019-03-11T06:36:42.021Z,16.87
2019-03-11T06:38:49.688Z,12.10
2019-03-11T06:40:57.336Z,12.40
2019-03-11T06:43:04.955Z,14.33
2019-03-11T06:45:14.618Z,10.95
2019-03-11T06:47:22.188Z,12.15
2019-03-11T06:49:29.781Z,11.60
2019-03-11T06:51:37.426Z,15.93
2019-03-11T06:53:45.092Z,13.38
2019-03-11T06:55:52.686Z,18.10
2019-03-11T06:58:00.357Z,17.27
2019-03-11T07:00:17.649Z,20.32
2019-03-11T07:02:25.159Z,18.02
2019-03-11T07:04:34.108Z,18.70
2019-03-11T07:06:42.221Z,15.70
2019-03-11T07:08:50.001Z,17.30
2019-03-11T07:10:57.578Z,10.68
2019-03-11T07:13:05.399Z,13.78
2019-03-11T07:15:15.111Z,15.30
2019-03-11T07:17:22.807Z,20.08
2019-03-11T07:19:30.511Z,18.57
2019-03-11T07:21:38.253Z,21.30
2019-03-11T07:23:45.978Z,22.32
2019-03-11T07:25:53.552Z,17.50
2019-03-11T07:28:01.234Z,6.87
2019-03-11T07:30:18.226Z,16.27
2019-03-11T07:32:26.353Z,8.05
2019-03-11T07:34:33.841Z,8.93
2019-03-11T07:36:44.385Z,10.72
2019-03-11T07:38:52.189Z,12.13
2019-03-11T07:40:59.976Z,20.45
2019-03-11T07:43:07.593Z,20.75
2019-03-11T07:45:16.719Z,13.05
2019-03-11T07:47:24.292Z,14.25
2019-03-11T07:49:31.932Z,14.03
2019-03-11T07:51:39.501Z,19.32
2019-03-11T07:53:47.020Z,19.87
2019-03-11T07:55:54.996Z,13.72
2019-03-11T07:58:02.561Z,13.78
2019-03-11T08:00:16.706Z,12.58
2019-03-11T08:02:24.409Z,10.85
2019-03-11T08:04:32.044Z,13.10
2019-03-11T08:06:39.713Z,17.32
2019-03-11T08:08:47.517Z,14.90
2019-03-11T08:10:55.001Z,14.13
2019-03-11T08:13:02.603Z,12.37
2019-03-11T08:15:16.371Z,11.65
2019-03-11T08:17:23.978Z,16.15
2019-03-11T08:19:33.179Z,12.63
2019-03-11T08:21:40.743Z,12.82
2019-03-11T08:23:48.315Z,11.95
2019-03-11T08:25:55.845Z,10.20
2019-03-11T08:28:03.412Z,21.02
2019-03-11T08:30:23.778Z,16.55
2019-03-11T08:32:32.195Z,19.17
2019-03-11T08:34:39.764Z,10.98
2019-03-11T08:36:49.151Z,18.12
2019-03-11T08:38:56.908Z,15.10
2019-03-11T08:41:04.622Z,8.20
2019-03-11T08:43:12.286Z,11.22
2019-03-11T08:45:20.919Z,11.18
2019-03-11T08:47:28.389Z,14.87
2019-03-11T08:49:35.948Z,8.85
2019-03-11T08:51:43.608Z,12.95
2019-03-11T08:53:51.178Z,10.68
2019-03-11T08:55:58.850Z,9.65
2019-03-11T08:58:06.412Z,14.28
2019-03-11T09:00:23.645Z,11.73
2019-03-11T09:02:31.441Z,13.00
2019-03-11T09:04:39.105Z,10.10
2019-03-11T09:06:46.672Z,9.35
2019-03-11T09:08:54.437Z,10.40
2019-03-11T09:11:02.038Z,19.02
2019-03-11T09:13:09.604Z,14.00
2019-03-11T09:15:21.377Z,13.35
2019-03-11T09:17:29.929Z,13.00
2019-03-11T09:19:37.572Z,13.25
2019-03-11T09:21:45.138Z,11.85
2019-03-11T09:23:52.948Z,9.98
2019-03-11T09:26:00.484Z,14.30
2019-03-11T09:28:08.121Z,11.45
2019-03-11T09:30:23.448Z,8.63
2019-03-11T09:32:31.083Z,11.22
2019-03-11T09:34:39.165Z,11.48
2019-03-11T09:36:46.754Z,10.18
2019-03-11T09:38:54.341Z,9.18
2019-03-11T09:41:02.062Z,5.67
2019-03-11T09:43:10.747Z,10.32
2019-03-11T09:45:19.587Z,10.85
2019-03-11T09:47:27.226Z,11.95
2019-03-11T09:49:34.818Z,9.03
2019-03-11T09:51:42.381Z,9.60
2019-03-11T09:53:49.945Z,16.75
2019-03-11T09:55:57.651Z,12.58
2019-03-11T09:58:05.543Z,6.53
2019-03-11T10:00:28.730Z,14.15
2019-03-11T10:02:36.316Z,11.43
2019-03-11T10:04:43.887Z,12.80
2019-03-11T10:06:51.529Z,8.50
2019-03-11T10:08:59.258Z,22.30
2019-03-11T10:11:06.935Z,4.95
2019-03-11T10:13:14.538Z,7.10
2019-03-11T10:15:23.273Z,7.85
2019-03-11T10:17:30.733Z,5.28
2019-03-11T10:19:38.405Z,11.75
2019-03-11T10:21:46.000Z,8.00
2019-03-11T10:23:53.567Z,4.35
2019-03-11T10:26:01.222Z,8.60
2019-03-11T10:28:09.121Z,8.60
2019-03-11T10:30:19.661Z,7.60
2019-03-11T10:32:27.169Z,7.90
2019-03-11T10:34:34.820Z,12.82
2019-03-11T10:36:43.189Z,5.08
2019-03-11T10:38:50.728Z,8.35
2019-03-11T10:40:58.324Z,10.08
2019-03-11T10:43:05.961Z,6.42
2019-03-11T10:45:16.211Z,12.55
2019-03-11T10:47:24.670Z,6.15
2019-03-11T10:49:32.231Z,7.53
2019-03-11T10:51:39.964Z,4.10
2019-03-11T10:53:47.555Z,5.17
2019-03-11T10:55:55.127Z,5.50
2019-03-11T10:58:02.864Z,6.37
2019-03-11T11:00:30.599Z,7.15
2019-03-11T11:02:38.164Z,6.17
2019-03-11T11:04:47.899Z,8.93
2019-03-11T11:06:56.096Z,5.25
2019-03-11T11:09:05.251Z,5.03
2019-03-11T11:11:13.082Z,4.05
2019-03-11T11:13:20.766Z,3.62
2019-03-11T11:15:30.834Z,5.55
2019-03-11T11:17:38.396Z,10.18
2019-03-11T11:19:46.066Z,8.40
2019-03-11T11:21:53.724Z,4.22
2019-03-11T11:24:01.354Z,6.42
2019-03-11T11:26:09.111Z,9.70
2019-03-11T11:28:16.744Z,10.10
2019-03-11T11:30:28.900Z,8.15
2019-03-11T11:32:36.487Z,12.03
2019-03-11T11:34:44.052Z,11.12
2019-03-11T11:36:52.562Z,12.37
2019-03-11T11:39:00.222Z,11.40
2019-03-11T11:41:09.447Z,5.72
2019-03-11T11:43:17.136Z,7.78
2019-03-11T11:45:33.330Z,5.42
2019-03-11T11:47:40.964Z,7.58
2019-03-11T11:49:48.528Z,8.33
2019-03-11T11:51:56.303Z,8.30
2019-03-11T11:54:03.933Z,3.95
2019-03-11T11:56:11.575Z,5.53
2019-03-11T11:58:20.031Z,5.00
2019-03-11T12:00:33.994Z,6.28
2019-03-11T12:02:41.565Z,5.53
2019-03-11T12:04:49.258Z,10.45
2019-03-11T12:06:56.992Z,9.28
2019-03-11T12:09:05.771Z,14.15
2019-03-11T12:11:14.749Z,18.90
2019-03-11T12:13:22.405Z,5.70
2019-03-11T12:15:30.114Z,6.78
2019-03-11T12:17:37.835Z,6.87
2019-03-11T12:19:45.552Z,7.03
2019-03-11T12:21:53.078Z,10.08
2019-03-11T12:24:00.673Z,9.40
2019-03-11T12:26:08.404Z,12.55
2019-03-11T12:28:16.043Z,13.35
2019-03-11T12:30:28.687Z,13.88
2019-03-11T12:32:36.231Z,14.25
2019-03-11T12:34:45.143Z,13.75
2019-03-11T12:36:53.190Z,28.65
2019-03-11T12:39:00.833Z,18.10
2019-03-11T12:41:10.016Z,13.72
2019-03-11T12:43:17.616Z,9.98
2019-03-11T12:45:26.653Z,17.40
2019-03-11T12:47:34.206Z,7.75
2019-03-11T12:49:41.894Z,12.90
2019-03-11T12:51:50.597Z,10.80
2019-03-11T12:53:58.152Z,13.10
2019-03-11T12:56:05.896Z,7.78
2019-03-11T12:58:13.758Z,12.82
2019-03-11T13:00:22.914Z,11.55
2019-03-11T13:02:30.599Z,14.28
2019-03-11T13:04:38.234Z,19.40
2019-03-11T13:06:45.823Z,9.68
2019-03-11T13:08:53.578Z,11.15
2019-03-11T13:11:01.208Z,11.30
2019-03-11T13:13:08.816Z,7.37
2019-03-11T13:15:18.015Z,11.73
2019-03-11T13:17:25.585Z,14.63
2019-03-11T13:19:33.195Z,5.92
2019-03-11T13:21:40.958Z,8.58
2019-03-11T13:23:48.585Z,16.70
2019-03-11T13:25:56.150Z,11.57
2019-03-11T13:28:03.727Z,7.72
2019-03-11T13:30:14.878Z,7.90
2019-03-11T13:32:23.023Z,13.22
2019-03-11T13:34:30.715Z,13.03
2019-03-11T13:36:38.287Z,21.68
2019-03-11T13:38:46.058Z,9.65
2019-03-11T13:40:53.986Z,8.18
2019-03-11T13:43:01.541Z,8.43
2019-03-11T13:45:18.847Z,15.58
2019-03-11T13:47:27.988Z,17.82
2019-03-11T13:49:36.536Z,19.25
2019-03-11T13:51:44.182Z,23.25
2019-03-11T13:53:52.928Z,27.35
2019-03-11T13:56:01.742Z,33.78
2019-03-11T13:58:09.391Z,27.37
2019-03-11T14:00:21.742Z,21.27
2019-03-11T14:02:29.316Z,19.92
2019-03-11T14:04:38.078Z,7.55
2019-03-11T14:06:45.647Z,13.15
2019-03-11T14:08:53.560Z,19.57
2019-03-11T14:11:02.107Z,12.18
2019-03-11T14:13:09.720Z,23.18
2019-03-11T14:15:22.299Z,22.05
2019-03-11T14:17:29.940Z,41.73
2019-03-11T14:19:38.778Z,24.82
2019-03-11T14:21:46.637Z,39.55
2019-03-11T14:23:54.589Z,35.03
2019-03-11T14:26:02.282Z,41.58
2019-03-11T14:28:09.967Z,62.27
2019-03-11T14:30:21.651Z,27.50
2019-03-11T14:32:29.254Z,39.55
2019-03-11T14:34:36.868Z,38.35
2019-03-11T14:36:44.516Z,24.90
2019-03-11T14:38:53.520Z,33.60
2019-03-11T14:41:01.212Z,28.73
2019-03-11T14:43:08.995Z,27.60
2019-03-11T14:45:23.956Z,11.43
2019-03-11T14:47:31.630Z,10.32
2019-03-11T14:49:39.332Z,11.25
2019-03-11T14:51:47.000Z,36.10
2019-03-11T14:53:54.587Z,29.20
2019-03-11T14:56:02.153Z,20.45
2019-03-11T14:58:11.393Z,26.57
2019-03-11T15:00:23.764Z,22.10
2019-03-11T15:02:33.676Z,25.85
2019-03-11T15:04:40.862Z,23.15
2019-03-11T15:06:48.333Z,27.55
2019-03-11T15:08:55.908Z,27.65
2019-03-11T15:11:03.512Z,22.30
2019-03-11T15:13:11.253Z,24.85
2019-03-11T15:15:24.858Z,26.57
2019-03-11T15:17:32.458Z,37.65
2019-03-11T15:19:40.100Z,35.85
2019-03-11T15:21:47.781Z,38.95
2019-03-11T15:23:55.471Z,47.98
2019-03-11T15:26:05.602Z,37.38
2019-03-11T15:28:13.221Z,36.73
2019-03-11T15:30:25.630Z,35.48
2019-03-11T15:32:33.179Z,49.20
2019-03-11T15:34:40.786Z,47.78
2019-03-11T15:36:48.384Z,40.10
2019-03-11T15:38:56.901Z,40.67
2019-03-11T15:41:04.584Z,30.95
2019-03-11T15:43:12.219Z,34.13
2019-03-11T15:45:20.734Z,41.75
2019-03-11T15:47:28.287Z,36.53
2019-03-11T15:49:35.877Z,56.08
2019-03-11T15:51:43.685Z,44.20
2019-03-11T15:53:51.325Z,75.15
2019-03-11T15:55:58.923Z,42.15
2019-03-11T15:58:06.663Z,46.77
2019-03-11T16:00:21.767Z,49.45
2019-03-11T16:02:29.373Z,36.40
2019-03-11T16:04:36.946Z,31.30
2019-03-11T16:06:44.584Z,11.75
2019-03-11T16:08:52.361Z,21.62
2019-03-11T16:11:00.907Z,19.80
2019-03-11T16:13:08.666Z,12.43
2019-03-11T16:15:17.670Z,20.25
2019-03-11T16:17:25.217Z,8.80
2019-03-11T16:19:32.784Z,11.90
2019-03-11T16:21:40.448Z,8.30
2019-03-11T16:23:48.979Z,7.00
2019-03-11T16:25:56.440Z,9.78
2019-03-11T16:28:04.236Z,6.60
2019-03-11T16:30:19.686Z,13.80
2019-03-11T16:32:27.285Z,14.10
2019-03-11T16:34:35.129Z,13.32
2019-03-11T16:36:42.860Z,9.68
2019-03-11T16:38:50.528Z,18.57
2019-03-11T16:40:58.621Z,17.27
2019-03-11T16:43:06.258Z,14.23
2019-03-11T16:45:18.071Z,26.48
2019-03-11T16:47:26.823Z,16.10
2019-03-11T16:49:34.399Z,29.00
2019-03-11T16:51:41.974Z,23.07
2019-03-11T16:53:49.747Z,35.40
2019-03-11T16:55:57.335Z,23.20
2019-03-11T16:58:05.365Z,35.50
2019-03-11T17:00:25.339Z,26.77
2019-03-11T17:02:32.916Z,31.45
2019-03-11T17:04:40.561Z,89.40
2019-03-11T17:06:48.189Z,60.35
2019-03-11T17:08:55.837Z,41.42
2019-03-11T17:11:04.375Z,40.35
2019-03-11T17:13:12.135Z,44.65
2019-03-11T17:15:19.921Z,56.63
2019-03-11T17:17:28.665Z,74.90
2019-03-11T17:19:36.161Z,70.50
2019-03-11T17:21:43.838Z,56.77
2019-03-11T17:23:51.485Z,64.80
2019-03-11T17:25:59.077Z,60.10
2019-03-11T17:28:06.838Z,64.47
2019-03-11T17:30:21.019Z,78.72
2019-03-11T17:32:28.690Z,78.57
2019-03-11T17:34:36.262Z,87.50
2019-03-11T17:36:44.118Z,104.92
2019-03-11T17:38:51.743Z,138.52
2019-03-11T17:40:59.357Z,133.07
2019-03-11T17:43:06.990Z,132.87
2019-03-11T17:45:16.061Z,86.72
2019-03-11T17:47:23.781Z,100.60
2019-03-11T17:49:32.716Z,90.22
2019-03-11T17:51:40.324Z,88.42
2019-03-11T17:53:48.000Z,80.05
2019-03-11T17:55:57.139Z,79.85
2019-03-11T17:58:04.856Z,89.52
2019-03-11T18:00:25.485Z,82.25
2019-03-11T18:02:33.272Z,80.72
2019-03-11T18:04:40.980Z,75.55
2019-03-11T18:06:48.863Z,32.80
2019-03-11T18:08:56.345Z,73.65
2019-03-11T18:11:04.282Z,63.83
2019-03-11T18:13:11.997Z,56.45
2019-03-11T18:15:19.941Z,59.25
2019-03-11T18:17:27.609Z,40.00
2019-03-11T18:19:35.196Z,22.22
2019-03-11T18:21:42.891Z,61.05
2019-03-11T18:23:50.574Z,39.92
2019-03-11T18:25:58.285Z,26.40
2019-03-11T18:28:05.954Z,69.62
2019-03-11T18:30:28.709Z,65.72
2019-03-11T18:32:36.438Z,60.80
2019-03-11T18:34:44.107Z,32.88
2019-03-11T18:36:51.715Z,23.77
2019-03-11T18:38:59.388Z,36.13
2019-03-11T18:41:09.249Z,22.87
2019-03-11T18:43:20.927Z,18.62
2019-03-11T18:45:26.198Z,27.77
2019-03-11T18:47:33.772Z,27.65
2019-03-11T18:49:41.517Z,17.15
2019-03-11T18:51:49.212Z,26.45
2019-03-11T18:53:56.975Z,29.25
2019-03-11T18:56:04.690Z,35.00
2019-03-11T18:58:12.433Z,31.87
2019-03-11T19:00:24.247Z,26.97
2019-03-11T19:02:31.735Z,40.25
2019-03-11T19:04:39.490Z,28.95
2019-03-11T19:06:47.121Z,20.62
2019-03-11T19:08:56.040Z,35.60
2019-03-11T19:11:03.804Z,14.50
2019-03-11T19:13:12.636Z,18.52
2019-03-11T19:15:27.054Z,45.95
2019-03-11T19:17:34.702Z,22.35
2019-03-11T19:19:46.427Z,17.77
2019-03-11T19:21:51.835Z,63.50
2019-03-11T19:23:59.708Z,40.10
2019-03-11T19:26:07.425Z,30.92
2019-03-11T19:28:15.157Z,26.05
2019-03-11T19:30:29.529Z,23.77
2019-03-11T19:32:37.056Z,22.50
2019-03-11T19:34:45.606Z,21.00
2019-03-11T19:36:53.190Z,26.05
2019-03-11T19:39:00.801Z,16.70
2019-03-11T19:41:10.619Z,49.85
2019-03-11T19:43:18.362Z,39.80
2019-03-11T19:45:25.979Z,45.35
2019-03-11T19:47:33.607Z,25.48
2019-03-11T19:49:41.292Z,50.28
2019-03-11T19:51:48.922Z,16.55
2019-03-11T19:53:56.657Z,36.28
2019-03-11T19:56:04.314Z,58.02
2019-03-11T19:58:12.036Z,73.72
2019-03-11T20:00:24.026Z,57.73
2019-03-11T20:02:31.880Z,67.20
2019-03-11T20:04:39.583Z,72.58
2019-03-11T20:06:47.633Z,114.20
2019-03-11T20:08:55.290Z,93.65
2019-03-11T20:11:02.970Z,61.88
2019-03-11T20:13:10.707Z,61.83
2019-03-11T20:15:18.528Z,66.50
2019-03-11T20:17:26.266Z,17.42
2019-03-11T20:19:33.947Z,40.98
2019-03-11T20:21:41.666Z,54.38
2019-03-11T20:23:49.629Z,53.10
2019-03-11T20:25:57.274Z,40.28
2019-03-11T20:28:06.393Z,42.25
2019-03-11T20:30:21.309Z,48.02
2019-03-11T20:32:29.093Z,48.48
2019-03-11T20:34:36.782Z,38.10
2019-03-11T20:36:44.374Z,41.85
2019-03-11T20:38:51.967Z,30.52
2019-03-11T20:40:59.622Z,16.67
2019-03-11T20:43:07.445Z,42.70
2019-03-11T20:45:18.203Z,37.73
2019-03-11T20:47:25.702Z,39.98
2019-03-11T20:49:33.531Z,31.90
2019-03-11T20:51:41.378Z,36.93
2019-03-11T20:53:48.997Z,29.32
2019-03-11T20:55:56.591Z,27.05
2019-03-11T20:58:04.298Z,47.17
2019-03-11T21:00:23.985Z,46.95
2019-03-11T21:02:31.659Z,44.75
2019-03-11T21:04:39.360Z,41.95
2019-03-11T21:06:46.954Z,45.17
2019-03-11T21:08:54.771Z,31.23
2019-03-11T21:11:02.525Z,36.42
2019-03-11T21:13:11.695Z,53.33
2019-03-11T21:15:19.722Z,47.98
2019-03-11T21:17:29.476Z,29.10
2019-03-11T21:19:36.575Z,39.60
2019-03-11T21:21:44.110Z,43.23
2019-03-11T21:24:01.504Z,42.58
2019-03-11T21:26:01.199Z,41.73
2019-03-11T21:28:08.952Z,44.23
2019-03-11T21:30:22.195Z,35.52
2019-03-11T21:32:29.839Z,44.88
2019-03-11T21:34:37.485Z,44.98
2019-03-11T21:36:45.209Z,21.02
2019-03-11T21:38:53.878Z,43.75
2019-03-11T21:41:01.661Z,46.90
2019-03-11T21:43:10.236Z,22.87
2019-03-11T21:45:18.518Z,21.07
2019-03-11T21:47:26.250Z,46.45
2019-03-11T21:49:34.016Z,52.48
2019-03-11T21:51:41.570Z,43.95
2019-03-11T21:53:49.143Z,51.65
2019-03-11T21:55:56.845Z,35.55
2019-03-11T21:58:13.163Z,44.65
2019-03-11T22:00:32.969Z,47.98
2019-03-11T22:02:31.561Z,51.25
2019-03-11T22:04:39.131Z,33.42
2019-03-11T22:06:46.902Z,27.22
2019-03-11T22:08:57.409Z,35.63
2019-03-11T22:11:05.211Z,24.90
2019-03-11T22:13:12.796Z,50.90
2019-03-11T22:15:25.215Z,30.48
2019-03-11T22:17:35.365Z,42.65
2019-03-11T22:19:41.953Z,51.40
2019-03-11T22:21:49.758Z,16.62
2019-03-11T22:23:57.325Z,19.95
2019-03-11T22:26:05.029Z,29.20
2019-03-11T22:28:12.744Z,38.30
2019-03-11T22:30:25.380Z,32.80
2019-03-11T22:32:33.054Z,31.85
2019-03-11T22:34:40.652Z,50.08
2019-03-11T22:36:48.492Z,48.23
2019-03-11T22:38:56.074Z,37.28
2019-03-11T22:41:03.616Z,52.45
2019-03-11T22:43:11.193Z,32.63
2019-03-11T22:45:21.745Z,32.30
2019-03-11T22:47:29.343Z,27.10
2019-03-11T22:49:37.084Z,27.00
2019-03-11T22:51:44.661Z,26.40
2019-03-11T22:53:52.277Z,46.02
2019-03-11T22:56:00.001Z,38.42
2019-03-11T22:58:07.569Z,46.37
2019-03-11T23:00:43.637Z,38.88
2019-03-11T23:02:52.951Z,33.90
2019-03-11T23:05:00.538Z,42.67
2019-03-11T23:07:08.222Z,47.40
2019-03-11T23:09:16.047Z,47.40
2019-03-11T23:11:23.639Z,51.42
2019-03-11T23:13:31.170Z,46.28
2019-03-11T23:15:38.856Z,28.32
2019-03-11T23:17:46.560Z,48.08
2019-03-11T23:19:54.175Z,44.05
2019-03-11T23:22:01.758Z,47.53
2019-03-11T23:24:09.410Z,51.45
2019-03-11T23:26:17.098Z,43.08
2019-03-11T23:28:24.758Z,43.30
2019-03-11T23:30:33.745Z,25.15
2019-03-11T23:32:41.432Z,27.93
2019-03-11T23:34:49.085Z,47.83
2019-03-11T23:36:56.662Z,36.73
2019-03-11T23:39:06.180Z,51.68
2019-03-11T23:41:15.532Z,53.10
2019-03-11T23:43:24.008Z,56.50
2019-03-11T23:45:31.651Z,45.03
2019-03-11T23:47:39.365Z,57.43
2019-03-11T23:49:46.957Z,59.58
2019-03-11T23:51:54.700Z,56.33
2019-03-11T23:54:02.295Z,61.77
2019-03-11T23:56:09.876Z,57.48
2019-03-11T23:58:17.630Z,43.15
